createdAt,value
2023-03-24T00:00:49.604Z,11.26
2023-03-24T00:03:17.954Z,10.93
2023-03-24T00:05:44.821Z,10.80
2023-03-24T00:08:53.502Z,10.74
2023-03-24T00:11:59.628Z,10.47
2023-03-24T00:14:26.316Z,10.45
2023-03-24T00:16:54.745Z,10.69
2023-03-24T00:19:22.630Z,10.51
2023-03-24T00:21:56.095Z,10.82
2023-03-24T00:24:23.060Z,9.89
2023-03-24T00:26:51.717Z,9.85
2023-03-24T00:29:19.133Z,9.79
2023-03-24T00:31:45.950Z,9.97
2023-03-24T00:34:13.534Z,10.25
2023-03-24T00:37:00.565Z,10.36
2023-03-24T00:39:52.273Z,10.30
2023-03-24T00:42:33.894Z,10.58
2023-03-24T00:45:00.511Z,10.63
2023-03-24T00:47:27.115Z,10.62
2023-03-24T00:49:54.421Z,10.26
2023-03-24T00:52:25.017Z,10.34
2023-03-24T00:54:58.260Z,10.10
2023-03-24T00:57:26.177Z,9.97
2023-03-24T00:59:54.503Z,9.93
2023-03-24T01:02:24.739Z,9.82
2023-03-24T01:04:56.566Z,9.97
2023-03-24T01:07:26.015Z,9.46
2023-03-24T01:09:57.660Z,9.57
2023-03-24T01:12:50.481Z,9.80
2023-03-24T01:15:33.800Z,9.77
2023-03-24T01:18:03.602Z,9.98
2023-03-24T01:20:34.263Z,9.93
2023-03-24T01:23:05.078Z,9.62
2023-03-24T01:25:32.336Z,9.32
2023-03-24T01:27:59.276Z,9.51
2023-03-24T01:33:01.186Z,9.15
2023-03-24T01:35:29.506Z,9.38
2023-03-24T01:37:56.634Z,9.65
2023-03-24T01:40:26.907Z,9.39
2023-03-24T01:42:53.647Z,9.64
2023-03-24T01:46:16.814Z,9.76
2023-03-24T01:49:08.561Z,10.00
2023-03-24T01:51:42.326Z,9.95
2023-03-24T01:54:16.613Z,9.53
2023-03-24T01:56:48.613Z,9.75
2023-03-24T01:59:21.408Z,9.82
2023-03-24T02:01:48.092Z,9.70
2023-03-24T02:04:15.360Z,9.62
2023-03-24T02:06:44.680Z,9.43
2023-03-24T02:09:13.575Z,9.42
2023-03-24T02:11:41.762Z,9.23
2023-03-24T02:14:09.264Z,9.34
2023-03-24T02:17:37.564Z,9.70
2023-03-24T02:20:41.823Z,9.62
2023-03-24T02:23:36.301Z,9.57
2023-03-24T02:26:28.339Z,9.67
2023-03-24T02:29:03.934Z,9.72
2023-03-24T02:32:25.518Z,9.03
2023-03-24T02:35:37.449Z,9.25
2023-03-24T02:38:43.778Z,9.27
2023-03-24T02:41:22.199Z,9.39
2023-03-24T02:44:26.326Z,9.56
2023-03-24T02:47:56.170Z,9.30
2023-03-24T02:50:54.631Z,9.32
2023-03-24T02:53:49.835Z,9.25
2023-03-24T02:56:34.824Z,9.05
2023-03-24T02:59:16.133Z,9.16
2023-03-24T03:01:54.567Z,8.88
2023-03-24T03:04:50.081Z,9.21
2023-03-24T03:07:22.044Z,9.41
2023-03-24T03:10:15.494Z,9.44
2023-03-24T03:12:43.949Z,9.54
2023-03-24T03:15:16.906Z,9.45
2023-03-24T03:17:53.326Z,9.26
2023-03-24T03:20:23.279Z,9.43
2023-03-24T03:23:00.838Z,9.51
2023-03-24T03:25:33.369Z,8.86
2023-03-24T03:28:04.825Z,8.49
2023-03-24T03:30:40.194Z,8.68
2023-03-24T03:33:13.916Z,8.98
2023-03-24T03:36:34.410Z,8.99
2023-03-24T03:39:11.577Z,8.87
2023-03-24T03:41:38.994Z,8.37
2023-03-24T03:44:05.842Z,8.60
2023-03-24T03:46:32.689Z,8.60
2023-03-24T03:48:59.322Z,9.03
2023-03-24T03:51:26.444Z,9.29
2023-03-24T03:56:54.073Z,8.75
2023-03-24T03:59:30.416Z,8.89
2023-03-24T04:01:57.279Z,8.53
2023-03-24T04:04:38.115Z,8.79
2023-03-24T04:07:24.175Z,8.64
2023-03-24T04:18:31.660Z,8.53
2023-03-24T04:21:20.015Z,8.52
2023-03-24T04:24:06.335Z,8.53
2023-03-24T04:26:41.350Z,8.07
2023-03-24T04:29:33.417Z,8.07
2023-03-24T04:32:26.834Z,8.19
2023-03-24T04:35:01.861Z,8.24
2023-03-24T04:37:33.497Z,8.19
2023-03-24T04:40:06.139Z,8.56
2023-03-24T04:42:37.720Z,8.60
2023-03-24T04:45:06.826Z,8.14
2023-03-24T04:47:43.266Z,7.96
2023-03-24T04:50:11.988Z,7.97
2023-03-24T04:52:40.007Z,7.91
2023-03-24T04:55:19.482Z,8.20
2023-03-24T04:57:46.044Z,8.17
2023-03-24T05:00:13.434Z,7.95
2023-03-24T05:02:45.306Z,7.79
2023-03-24T05:05:12.467Z,8.25
2023-03-24T05:07:39.052Z,8.08
2023-03-24T05:10:06.541Z,8.45
2023-03-24T05:12:33.082Z,8.59
2023-03-24T05:15:06.966Z,8.36
2023-03-24T05:17:38.022Z,8.72
2023-03-24T05:20:10.902Z,8.60
2023-03-24T05:22:38.808Z,8.95
2023-03-24T05:25:06.317Z,8.91
2023-03-24T05:27:32.903Z,9.30
2023-03-24T05:30:06.454Z,9.15
2023-03-24T05:32:33.062Z,9.25
2023-03-24T05:34:59.662Z,9.38
2023-03-24T05:37:27.458Z,9.55
2023-03-24T05:39:55.962Z,9.37
2023-03-24T05:42:23.128Z,9.68
2023-03-24T05:44:49.690Z,9.70
2023-03-24T05:47:16.449Z,10.11
2023-03-24T05:49:43.512Z,10.06
2023-03-24T05:52:11.159Z,10.01
2023-03-24T05:54:39.536Z,10.06
2023-03-24T05:57:09.926Z,10.50
2023-03-24T05:59:38.061Z,10.77
2023-03-24T06:02:05.311Z,11.05
2023-03-24T06:04:31.947Z,11.33
2023-03-24T06:06:59.152Z,11.54
2023-03-24T06:09:32.764Z,11.61
2023-03-24T06:12:00.155Z,11.87
2023-03-24T06:14:26.689Z,11.79
2023-03-24T06:16:53.662Z,12.03
2023-03-24T06:19:24.710Z,12.28
2023-03-24T06:21:51.344Z,12.50
2023-03-24T06:24:18.161Z,12.69
2023-03-24T06:26:44.726Z,12.67
2023-03-24T06:29:18.246Z,12.27
2023-03-24T06:31:46.229Z,12.23
2023-03-24T06:34:12.777Z,12.43
2023-03-24T06:36:39.446Z,12.16
2023-03-24T06:39:06.498Z,12.37
2023-03-24T06:41:33.251Z,12.54
2023-03-24T06:43:59.975Z,12.69
2023-03-24T06:46:26.564Z,13.10
2023-03-24T06:48:53.197Z,13.23
2023-03-24T06:51:19.956Z,13.33
2023-03-24T06:53:46.866Z,12.93
2023-03-24T06:56:18.254Z,13.26
2023-03-24T06:58:45.031Z,13.48
2023-03-24T07:01:12.199Z,13.38
2023-03-24T07:03:39.528Z,13.28
2023-03-24T07:06:07.521Z,13.26
2023-03-24T07:08:38.572Z,13.25
2023-03-24T07:11:21.269Z,13.54
2023-03-24T07:13:56.624Z,13.58
2023-03-24T07:16:23.327Z,13.58
2023-03-24T07:18:49.948Z,13.93
2023-03-24T07:21:16.598Z,14.13
2023-03-24T07:23:43.138Z,13.52
2023-03-24T07:26:09.740Z,13.62
2023-03-24T07:28:36.861Z,13.78
2023-03-24T07:31:05.089Z,13.88
2023-03-24T07:33:32.353Z,14.31
2023-03-24T07:35:59.734Z,14.56
2023-03-24T07:38:29.280Z,14.48
2023-03-24T07:40:58.504Z,14.24
2023-03-24T07:43:34.111Z,14.77
2023-03-24T07:46:01.867Z,14.82
2023-03-24T07:48:28.658Z,15.10
2023-03-24T07:50:55.273Z,14.42
2023-03-24T07:53:22.000Z,15.05
2023-03-24T07:55:48.913Z,15.25
2023-03-24T07:58:16.341Z,15.40
2023-03-24T08:00:43.195Z,15.94
2023-03-24T08:03:14.506Z,16.61
2023-03-24T08:05:42.087Z,16.66
2023-03-24T08:08:09.215Z,16.53
2023-03-24T08:10:35.964Z,17.08
2023-03-24T08:13:02.739Z,17.86
2023-03-24T08:15:29.979Z,18.26
2023-03-24T08:17:57.294Z,18.84
2023-03-24T08:20:27.122Z,19.11
2023-03-24T08:22:54.677Z,19.42
2023-03-24T08:25:24.525Z,19.53
2023-03-24T08:27:51.774Z,20.07
2023-03-24T08:30:25.588Z,20.25
2023-03-24T08:32:58.244Z,19.74
2023-03-24T08:35:31.580Z,19.62
2023-03-24T08:37:59.586Z,19.19
2023-03-24T08:40:27.579Z,19.82
2023-03-24T08:42:57.801Z,19.62
2023-03-24T08:45:48.735Z,20.25
2023-03-24T08:48:23.004Z,20.41
2023-03-24T08:50:49.548Z,20.13
2023-03-24T08:53:16.264Z,20.36
2023-03-24T08:55:44.708Z,20.10
2023-03-24T08:58:16.482Z,20.24
2023-03-24T09:00:44.423Z,19.15
2023-03-24T09:03:18.615Z,18.50
2023-03-24T09:05:47.670Z,18.53
2023-03-24T09:08:16.539Z,19.04
2023-03-24T09:10:46.953Z,19.46
2023-03-24T09:13:14.451Z,19.23
2023-03-24T09:15:47.712Z,19.22
2023-03-24T09:21:10.315Z,18.99
2023-03-24T09:23:36.908Z,18.93
2023-03-24T09:26:04.936Z,18.57
2023-03-24T09:28:31.581Z,18.80
2023-03-24T09:31:04.393Z,18.88
2023-03-24T09:33:40.079Z,18.40
2023-03-24T09:36:13.260Z,18.41
2023-03-24T09:38:58.404Z,18.38
2023-03-24T09:41:29.415Z,18.75
2023-03-24T09:44:31.387Z,18.94
2023-03-24T09:47:05.966Z,18.86
2023-03-24T09:49:37.401Z,18.65
2023-03-24T09:52:06.489Z,19.21
2023-03-24T09:54:48.123Z,19.17
2023-03-24T09:57:24.283Z,19.41
2023-03-24T09:59:51.084Z,19.66
2023-03-24T10:02:20.691Z,20.03
2023-03-24T10:04:48.426Z,20.26
2023-03-24T10:07:34.947Z,20.57
2023-03-24T10:10:01.600Z,20.61
2023-03-24T10:12:38.829Z,20.64
2023-03-24T10:15:37.290Z,21.27
2023-03-24T10:18:26.097Z,21.37
2023-03-24T10:21:22.651Z,21.34
2023-03-24T10:24:38.379Z,21.61
2023-03-24T10:27:22.973Z,21.90
2023-03-24T10:29:57.720Z,21.38
2023-03-24T10:32:29.525Z,21.89
2023-03-24T10:35:07.720Z,22.10
2023-03-24T10:37:34.554Z,21.81
2023-03-24T10:40:01.628Z,21.57
2023-03-24T10:42:34.402Z,21.25
2023-03-24T10:45:02.899Z,21.40
2023-03-24T10:47:32.973Z,21.01
2023-03-24T10:50:11.944Z,21.35
2023-03-24T10:52:45.370Z,21.56
2023-03-24T10:55:19.066Z,21.23
2023-03-24T10:57:49.914Z,21.82
2023-03-24T11:00:26.836Z,21.63
2023-03-24T11:03:04.097Z,21.82
2023-03-24T11:05:33.755Z,22.11
2023-03-24T11:11:14.191Z,21.83
2023-03-24T11:13:41.085Z,21.21
2023-03-24T11:16:17.076Z,21.56
2023-03-24T11:18:57.289Z,21.21
2023-03-24T11:21:24.400Z,21.90
2023-03-24T11:24:34.907Z,21.70
2023-03-24T11:27:35.743Z,22.18
2023-03-24T11:30:15.692Z,21.63
2023-03-24T11:32:48.136Z,22.19
2023-03-24T11:35:18.595Z,22.15
2023-03-24T11:37:46.330Z,22.21
2023-03-24T11:40:12.889Z,22.37
2023-03-24T11:42:52.788Z,22.78
2023-03-24T11:45:32.957Z,23.06
2023-03-24T11:48:01.927Z,23.29
2023-03-24T11:50:38.291Z,23.15
2023-03-24T11:53:46.060Z,23.36
2023-03-24T11:56:46.745Z,23.85
2023-03-24T11:59:19.076Z,23.45
2023-03-24T12:01:56.535Z,23.44
2023-03-24T12:04:36.569Z,23.70
2023-03-24T12:07:13.044Z,24.00
2023-03-24T12:09:53.860Z,24.03
2023-03-24T12:15:40.161Z,23.60
2023-03-24T12:18:09.664Z,23.75
2023-03-24T12:20:54.029Z,24.46
2023-03-24T12:23:34.019Z,24.69
2023-03-24T12:26:08.613Z,24.78
2023-03-24T12:28:48.645Z,24.58
2023-03-24T12:31:37.636Z,23.77
2023-03-24T12:34:29.292Z,23.98
2023-03-24T12:37:01.957Z,24.22
2023-03-24T12:39:35.623Z,24.51
2023-03-24T12:42:12.715Z,24.25
2023-03-24T12:45:11.332Z,23.61
2023-03-24T12:48:11.877Z,23.85
2023-03-24T12:51:29.793Z,23.96
2023-03-24T12:54:28.019Z,23.74
2023-03-24T12:57:04.104Z,23.78
2023-03-24T12:59:42.555Z,23.83
2023-03-24T13:05:09.132Z,22.98
2023-03-24T13:07:43.937Z,23.68
2023-03-24T13:10:30.580Z,23.45
2023-03-24T13:16:54.563Z,23.81
2023-03-24T13:19:24.160Z,23.89
2023-03-24T13:21:54.679Z,23.29
2023-03-24T13:24:22.560Z,23.11
2023-03-24T13:27:07.551Z,23.66
2023-03-24T13:30:05.405Z,23.87
2023-03-24T13:33:05.074Z,24.03
2023-03-24T13:48:52.316Z,23.22
2023-03-24T13:51:21.851Z,23.09
2023-03-24T13:53:56.810Z,23.29
2023-03-24T13:56:34.203Z,23.44
2023-03-24T13:59:22.849Z,23.93
2023-03-24T14:02:09.360Z,24.02
2023-03-24T14:05:04.618Z,23.51
2023-03-24T14:08:09.436Z,23.48
2023-03-24T14:10:50.414Z,23.48
2023-03-24T14:13:16.935Z,23.58
2023-03-24T14:15:49.709Z,22.95
2023-03-24T14:18:19.507Z,23.23
2023-03-24T14:20:58.334Z,23.35
2023-03-24T14:23:35.808Z,23.66
2023-03-24T14:26:02.404Z,23.60
2023-03-24T14:28:32.770Z,23.62
2023-03-24T14:31:10.196Z,23.44
2023-03-24T14:33:37.951Z,23.73
2023-03-24T14:36:06.731Z,23.75
2023-03-24T14:38:41.284Z,23.96
2023-03-24T14:41:16.495Z,23.98
2023-03-24T14:44:03.252Z,23.97
2023-03-24T14:46:42.558Z,23.82
2023-03-24T14:52:13.171Z,23.91
2023-03-24T14:54:50.385Z,23.60
2023-03-24T14:57:20.558Z,23.41
2023-03-24T15:02:48.875Z,23.92
2023-03-24T15:05:26.389Z,23.85
2023-03-24T15:10:36.590Z,23.92
2023-03-24T15:13:03.502Z,23.72
2023-03-24T15:15:30.685Z,23.79
2023-03-24T15:17:57.467Z,23.54
2023-03-24T15:20:27.244Z,23.68
2023-03-24T15:22:55.109Z,23.62
2023-03-24T15:25:28.840Z,23.78
2023-03-24T15:27:57.865Z,23.66
2023-03-24T15:42:15.932Z,23.41
2023-03-24T15:44:43.426Z,23.01
2023-03-24T15:47:21.088Z,23.09
2023-03-24T15:49:50.277Z,23.13
2023-03-24T15:52:36.287Z,22.80
2023-03-24T15:55:24.158Z,22.98
2023-03-24T15:57:51.100Z,22.95
2023-03-24T16:00:24.193Z,22.77
2023-03-24T16:02:53.706Z,22.74
2023-03-24T16:05:34.404Z,22.62
2023-03-24T16:08:06.949Z,22.50
2023-03-24T16:10:42.700Z,22.56
2023-03-24T16:13:18.662Z,22.50
2023-03-24T16:15:49.066Z,22.21
2023-03-24T16:18:19.973Z,22.05
2023-03-24T16:20:47.127Z,22.17
2023-03-24T16:23:14.047Z,22.23
2023-03-24T16:25:41.535Z,22.19
2023-03-24T16:28:13.885Z,21.94
2023-03-24T16:30:42.761Z,22.05
2023-03-24T16:33:09.786Z,22.01
2023-03-24T16:35:36.651Z,21.90
2023-03-24T16:38:03.221Z,21.91
2023-03-24T16:40:46.773Z,21.86
2023-03-24T16:43:13.514Z,21.81
2023-03-24T16:45:40.080Z,21.80
2023-03-24T16:48:07.074Z,21.77
2023-03-24T16:50:38.507Z,21.74
2023-03-24T16:53:05.838Z,21.64
2023-03-24T16:55:32.602Z,21.58
2023-03-24T16:57:59.227Z,21.47
2023-03-24T17:00:29.907Z,21.43
2023-03-24T17:03:00.023Z,21.38
2023-03-24T17:05:29.592Z,21.25
2023-03-24T17:07:57.381Z,21.16
2023-03-24T17:10:25.737Z,21.07
2023-03-24T17:12:55.445Z,20.95
2023-03-24T17:15:29.406Z,20.87
2023-03-24T17:17:56.550Z,20.84
2023-03-24T17:20:24.420Z,20.66
2023-03-24T17:22:53.811Z,20.52
2023-03-24T17:25:22.822Z,20.35
2023-03-24T17:27:52.440Z,20.30
2023-03-24T17:30:21.577Z,20.24
2023-03-24T17:32:48.884Z,20.21
2023-03-24T17:35:19.060Z,20.14
2023-03-24T17:37:46.190Z,20.11
2023-03-24T17:40:14.397Z,20.09
2023-03-24T17:42:45.774Z,20.02
2023-03-24T17:45:16.026Z,19.96
2023-03-24T17:47:43.008Z,19.91
2023-03-24T17:50:11.147Z,19.86
2023-03-24T17:52:40.440Z,19.83
2023-03-24T17:55:07.579Z,19.79
2023-03-24T17:57:34.311Z,19.73
2023-03-24T18:00:01.640Z,19.66
2023-03-24T18:02:28.259Z,19.53
2023-03-24T18:04:55.188Z,19.44
2023-03-24T18:07:23.024Z,19.25
2023-03-24T18:09:49.779Z,19.19
2023-03-24T18:12:16.714Z,19.10
2023-03-24T18:14:44.731Z,18.97
2023-03-24T18:17:13.540Z,18.90
2023-03-24T18:19:40.350Z,18.71
2023-03-24T18:22:07.377Z,18.48
2023-03-24T18:24:34.193Z,18.18
2023-03-24T18:27:01.289Z,18.24
2023-03-24T18:29:27.989Z,18.11
2023-03-24T18:31:54.628Z,18.07
2023-03-24T18:34:22.847Z,17.88
2023-03-24T18:36:52.937Z,17.66
2023-03-24T18:39:19.549Z,17.73
2023-03-24T18:41:48.066Z,17.65
2023-03-24T18:44:15.732Z,17.74
2023-03-24T18:46:43.258Z,17.73
2023-03-24T18:49:14.382Z,17.40
2023-03-24T18:51:41.999Z,17.54
2023-03-24T18:54:10.372Z,17.32
2023-03-24T18:56:37.104Z,17.27
2023-03-24T18:59:04.281Z,17.27
2023-03-24T19:01:32.941Z,17.19
2023-03-24T19:03:59.996Z,17.32
2023-03-24T19:06:31.193Z,17.40
2023-03-24T19:08:59.368Z,17.45
2023-03-24T19:11:26.686Z,17.53
2023-03-24T19:13:56.470Z,17.57
2023-03-24T19:19:27.753Z,17.60
2023-03-24T19:21:54.271Z,17.68
2023-03-24T19:24:20.927Z,17.71
2023-03-24T19:26:56.699Z,17.78
2023-03-24T19:29:23.516Z,17.82
2023-03-24T19:32:02.361Z,17.78
2023-03-24T19:34:28.917Z,17.81
2023-03-24T19:36:56.700Z,17.84
2023-03-24T19:39:26.334Z,17.91
2023-03-24T19:41:53.211Z,17.96
2023-03-24T19:44:19.748Z,17.89
2023-03-24T19:46:46.398Z,17.88
2023-03-24T19:49:13.196Z,17.86
2023-03-24T19:51:39.803Z,17.67
2023-03-24T19:54:06.426Z,17.60
2023-03-24T19:56:33.235Z,17.56
2023-03-24T19:58:59.783Z,17.53
2023-03-24T20:01:26.363Z,17.34
2023-03-24T20:03:53.263Z,17.23
2023-03-24T20:06:20.074Z,17.28
2023-03-24T20:08:46.642Z,17.29
2023-03-24T20:11:13.272Z,17.12
2023-03-24T20:13:39.882Z,16.95
2023-03-24T20:18:41.709Z,16.84
2023-03-24T20:21:09.244Z,16.55
2023-03-24T20:23:35.911Z,16.30
2023-03-24T20:26:02.480Z,16.43
2023-03-24T20:28:29.125Z,16.64
2023-03-24T20:31:03.476Z,16.73
2023-03-24T20:36:48.934Z,16.63
2023-03-24T20:39:15.982Z,16.29
2023-03-24T20:41:42.566Z,16.12
2023-03-24T20:44:09.222Z,16.32
2023-03-24T20:46:35.877Z,16.37
2023-03-24T20:49:02.725Z,16.28
2023-03-24T20:51:45.655Z,16.41
2023-03-24T20:54:12.462Z,16.33
2023-03-24T20:56:39.061Z,16.21
2023-03-24T20:59:06.999Z,16.30
2023-03-24T21:05:10.708Z,16.45
2023-03-24T21:07:43.941Z,16.32
2023-03-24T21:10:11.268Z,16.35
2023-03-24T21:12:54.295Z,16.64
2023-03-24T21:15:22.908Z,16.54
2023-03-24T21:17:49.711Z,16.80
2023-03-24T21:20:16.832Z,17.00
2023-03-24T21:22:56.207Z,17.11
2023-03-24T21:25:28.302Z,17.18
2023-03-24T21:27:55.752Z,17.17
2023-03-24T21:30:23.777Z,17.19
2023-03-24T21:32:52.297Z,17.10
2023-03-24T21:35:20.086Z,17.05
2023-03-24T21:37:47.720Z,16.98
2023-03-24T21:40:18.356Z,17.07
2023-03-24T21:42:46.767Z,16.95
2023-03-24T21:45:18.628Z,17.06
2023-03-24T21:47:47.990Z,17.04
2023-03-24T21:50:19.118Z,16.78
2023-03-24T21:52:47.763Z,16.60
2023-03-24T21:55:16.177Z,16.63
2023-03-24T21:57:44.608Z,17.02
2023-03-24T22:00:15.035Z,17.11
2023-03-24T22:02:45.576Z,17.09
2023-03-24T22:05:13.949Z,16.89
2023-03-24T22:07:42.010Z,17.26
2023-03-24T22:10:10.194Z,17.33
2023-03-24T22:12:36.790Z,17.32
2023-03-24T22:15:03.746Z,17.36
2023-03-24T22:17:42.938Z,16.99
2023-03-24T22:22:44.872Z,17.29
2023-03-24T22:25:15.408Z,17.14
2023-03-24T22:27:42.134Z,17.19
2023-03-24T22:30:11.324Z,17.00
2023-03-24T22:32:38.055Z,17.09
2023-03-24T22:35:05.591Z,17.09
2023-03-24T22:37:32.991Z,17.28
2023-03-24T22:39:59.697Z,17.11
2023-03-24T22:42:26.327Z,17.17
2023-03-24T22:44:52.893Z,17.34
2023-03-24T22:47:19.446Z,17.33
2023-03-24T22:49:46.058Z,17.30
2023-03-24T23:13:12.495Z,17.57
2023-03-24T23:15:40.038Z,17.34
2023-03-24T23:18:06.801Z,17.53
2023-03-24T23:20:33.451Z,17.59
2023-03-24T23:23:01.389Z,17.74
2023-03-24T23:25:31.163Z,17.51
2023-03-24T23:27:58.402Z,17.84
2023-03-24T23:30:25.141Z,17.93
2023-03-24T23:32:51.879Z,17.81
2023-03-24T23:35:18.760Z,17.60
2023-03-24T23:37:45.624Z,17.78
2023-03-24T23:40:14.910Z,17.92
2023-03-24T23:42:46.632Z,17.69
2023-03-24T23:45:18.075Z,17.71
2023-03-24T23:47:49.939Z,17.58
2023-03-24T23:50:17.799Z,17.89
2023-03-24T23:52:44.420Z,17.73
2023-03-24T23:55:12.880Z,17.87
2023-03-24T23:57:41.602Z,17.78
